createdAt,value
2023-02-09T00:01:19.840Z,30.95
2023-02-09T00:03:46.943Z,28.77
2023-02-09T00:06:16.572Z,31.23
2023-02-09T00:08:44.439Z,28.85
2023-02-09T00:11:48.076Z,32.58
2023-02-09T00:14:20.199Z,29.25
2023-02-09T00:16:49.211Z,29.08
2023-02-09T00:19:17.141Z,32.35
2023-02-09T00:21:44.417Z,33.53
2023-02-09T00:24:13.862Z,26.73
2023-02-09T00:26:42.056Z,29.95
2023-02-09T00:29:09.963Z,32.92
2023-02-09T00:31:38.121Z,32.28
2023-02-09T00:34:05.410Z,29.58
2023-02-09T00:36:32.667Z,28.92
2023-02-09T00:38:59.827Z,32.20
2023-02-09T00:41:45.703Z,28.55
2023-02-09T00:44:13.508Z,28.48
2023-02-09T00:46:40.419Z,33.03
2023-02-09T00:49:07.730Z,29.98
2023-02-09T00:51:34.904Z,28.33
2023-02-09T00:54:02.920Z,27.85
2023-02-09T00:56:29.814Z,30.90
2023-02-09T00:58:56.856Z,29.67
2023-02-09T01:01:25.551Z,28.45
2023-02-09T01:03:53.244Z,27.60
2023-02-09T01:06:21.015Z,34.28
2023-02-09T01:08:48.177Z,32.50
2023-02-09T01:11:16.072Z,31.98
2023-02-09T01:13:44.089Z,32.10
2023-02-09T01:16:14.548Z,34.92
2023-02-09T01:18:42.631Z,33.83
2023-02-09T01:21:14.412Z,38.42
2023-02-09T01:23:41.679Z,39.60
2023-02-09T01:26:11.029Z,32.35
2023-02-09T01:28:38.504Z,33.92
2023-02-09T01:31:07.326Z,38.67
2023-02-09T01:33:34.659Z,32.08
2023-02-09T01:36:04.764Z,38.42
2023-02-09T01:38:31.780Z,32.97
2023-02-09T01:40:58.989Z,32.15
2023-02-09T01:43:25.956Z,39.97
2023-02-09T01:45:57.482Z,33.25
2023-02-09T01:48:31.081Z,34.65
2023-02-09T01:51:00.987Z,35.30
2023-02-09T01:53:28.490Z,30.20
2023-02-09T01:56:00.490Z,32.25
2023-02-09T01:58:28.445Z,40.85
2023-02-09T02:00:55.327Z,31.85
2023-02-09T02:03:25.831Z,34.05
2023-02-09T02:06:07.534Z,31.08
2023-02-09T02:09:02.453Z,29.88
2023-02-09T02:11:30.240Z,37.15
2023-02-09T02:13:57.611Z,33.00
2023-02-09T02:16:54.255Z,33.17
2023-02-09T02:19:46.360Z,32.30
2023-02-09T02:22:52.204Z,33.05
2023-02-09T02:25:37.827Z,25.05
2023-02-09T02:31:05.351Z,33.53
2023-02-09T02:33:38.149Z,28.98
2023-02-09T02:36:16.798Z,31.02
2023-02-09T02:39:00.240Z,29.58
2023-02-09T02:41:54.924Z,32.08
2023-02-09T02:44:25.593Z,32.97
2023-02-09T02:46:58.732Z,31.08
2023-02-09T02:49:40.952Z,32.05
2023-02-09T02:52:10.325Z,35.75
2023-02-09T02:54:42.513Z,31.67
2023-02-09T02:57:16.792Z,33.08
2023-02-09T02:59:53.337Z,34.87
2023-02-09T03:02:25.368Z,36.17
2023-02-09T03:04:56.801Z,36.78
2023-02-09T03:07:24.348Z,34.60
2023-02-09T03:09:53.582Z,39.08
2023-02-09T03:12:39.000Z,32.33
2023-02-09T03:15:41.453Z,32.95
2023-02-09T03:18:11.637Z,32.75
2023-02-09T03:20:44.042Z,30.40
2023-02-09T03:23:23.208Z,33.03
2023-02-09T03:25:54.276Z,34.40
2023-02-09T03:28:29.028Z,31.83
2023-02-09T03:30:57.359Z,31.77
2023-02-09T03:33:30.300Z,34.67
2023-02-09T03:36:01.054Z,32.92
2023-02-09T03:38:28.322Z,30.90
2023-02-09T03:40:55.650Z,29.83
2023-02-09T03:43:42.603Z,35.65
2023-02-09T03:46:10.080Z,34.22
2023-02-09T03:48:37.275Z,31.05
2023-02-09T03:51:06.827Z,30.70
2023-02-09T03:53:36.500Z,32.17
2023-02-09T03:56:09.624Z,30.33
2023-02-09T03:58:37.670Z,31.58
2023-02-09T04:01:07.934Z,33.88
2023-02-09T04:03:36.223Z,34.70
2023-02-09T04:06:03.954Z,28.25
2023-02-09T04:08:33.274Z,31.10
2023-02-09T04:11:00.688Z,32.60
2023-02-09T04:13:28.286Z,30.05
2023-02-09T04:15:55.499Z,28.58
2023-02-09T04:18:22.527Z,30.95
2023-02-09T04:20:49.703Z,31.98
2023-02-09T04:23:17.819Z,26.80
2023-02-09T04:25:45.394Z,31.08
2023-02-09T04:28:12.770Z,28.25
2023-02-09T04:30:39.686Z,29.38
2023-02-09T04:33:06.764Z,26.33
2023-02-09T04:35:33.989Z,29.63
2023-02-09T04:38:00.969Z,29.13
2023-02-09T04:40:27.889Z,26.45
2023-02-09T04:42:54.886Z,24.65
2023-02-09T04:45:21.850Z,30.17
2023-02-09T04:47:48.909Z,30.83
2023-02-09T04:50:15.913Z,25.20
2023-02-09T04:52:42.912Z,24.02
2023-02-09T04:55:09.909Z,25.88
2023-02-09T04:57:55.536Z,23.80
2023-02-09T05:00:22.692Z,25.00
2023-02-09T05:02:49.904Z,27.13
2023-02-09T05:05:17.150Z,28.35
2023-02-09T05:07:44.146Z,22.90
2023-02-09T05:10:11.122Z,26.10
2023-02-09T05:12:38.136Z,22.05
2023-02-09T05:15:05.579Z,22.80
2023-02-09T05:17:33.436Z,21.17
2023-02-09T05:20:00.568Z,22.17
2023-02-09T05:22:27.836Z,21.15
2023-02-09T05:24:54.881Z,20.40
2023-02-09T05:27:22.121Z,20.95
2023-02-09T05:29:49.165Z,22.40
2023-02-09T05:32:16.242Z,22.23
2023-02-09T05:34:43.290Z,18.13
2023-02-09T05:37:10.302Z,21.83
2023-02-09T05:39:37.322Z,19.80
2023-02-09T05:42:16.520Z,19.20
2023-02-09T05:44:48.876Z,20.23
2023-02-09T05:47:21.978Z,22.27
2023-02-09T05:49:49.078Z,23.58
2023-02-09T05:52:16.839Z,24.50
2023-02-09T05:54:44.798Z,20.45
2023-02-09T05:57:11.971Z,20.40
2023-02-09T05:59:39.255Z,18.70
2023-02-09T06:02:06.741Z,20.30
2023-02-09T06:04:34.232Z,20.85
2023-02-09T06:07:01.470Z,19.85
2023-02-09T06:09:29.252Z,18.55
2023-02-09T06:11:56.135Z,21.08
2023-02-09T06:14:23.348Z,18.88
2023-02-09T06:16:50.576Z,19.40
2023-02-09T06:19:20.421Z,19.30
2023-02-09T06:21:47.842Z,21.00
2023-02-09T06:24:15.529Z,19.27
2023-02-09T06:26:42.945Z,23.65
2023-02-09T06:29:10.232Z,22.77
2023-02-09T06:31:38.529Z,23.88
2023-02-09T06:34:05.969Z,20.55
2023-02-09T06:36:33.104Z,21.25
2023-02-09T06:39:00.817Z,20.50
2023-02-09T06:41:27.934Z,20.75
2023-02-09T06:43:54.896Z,20.65
2023-02-09T06:46:22.176Z,18.88
2023-02-09T06:48:49.821Z,18.73
2023-02-09T06:51:17.499Z,19.50
2023-02-09T06:53:44.912Z,20.95
2023-02-09T06:56:13.445Z,24.92
2023-02-09T06:58:41.408Z,19.80
2023-02-09T07:01:15.911Z,20.48
2023-02-09T07:03:43.624Z,23.08
2023-02-09T07:06:17.442Z,22.70
2023-02-09T07:08:45.595Z,20.40
2023-02-09T07:11:15.471Z,21.88
2023-02-09T07:13:43.022Z,22.88
2023-02-09T07:16:11.539Z,25.77
2023-02-09T07:18:39.561Z,21.52
2023-02-09T07:21:12.305Z,25.67
2023-02-09T07:23:39.425Z,23.98
2023-02-09T07:26:08.702Z,21.73
2023-02-09T07:28:36.619Z,28.52
2023-02-09T07:31:06.857Z,22.00
2023-02-09T07:33:35.239Z,23.35
2023-02-09T07:36:07.047Z,22.63
2023-02-09T07:38:34.942Z,31.73
2023-02-09T07:41:03.857Z,22.63
2023-02-09T07:43:31.389Z,21.45
2023-02-09T07:46:07.240Z,23.05
2023-02-09T07:48:36.181Z,28.08
2023-02-09T07:51:03.779Z,21.10
2023-02-09T07:53:30.912Z,21.40
2023-02-09T07:55:58.118Z,22.85
2023-02-09T07:58:25.152Z,23.92
2023-02-09T08:00:52.623Z,26.02
2023-02-09T08:03:23.012Z,24.15
2023-02-09T08:05:56.004Z,22.85
2023-02-09T08:08:23.176Z,28.95
2023-02-09T08:10:50.628Z,25.17
2023-02-09T08:13:18.078Z,28.27
2023-02-09T08:15:49.441Z,26.17
2023-02-09T08:18:25.653Z,24.80
2023-02-09T08:20:53.423Z,23.23
2023-02-09T08:23:31.182Z,25.15
2023-02-09T08:26:01.905Z,29.08
2023-02-09T08:28:42.803Z,32.28
2023-02-09T08:31:17.304Z,29.48
2023-02-09T08:33:45.599Z,31.65
2023-02-09T08:36:13.422Z,23.75
2023-02-09T08:38:40.775Z,23.67
2023-02-09T08:41:09.942Z,23.48
2023-02-09T08:43:37.079Z,24.92
2023-02-09T08:46:07.014Z,25.45
2023-02-09T08:48:36.122Z,29.45
2023-02-09T08:51:03.763Z,24.67
2023-02-09T08:53:30.896Z,24.48
2023-02-09T08:55:58.327Z,24.70
2023-02-09T08:58:26.461Z,31.92
2023-02-09T09:00:57.242Z,27.20
2023-02-09T09:03:30.104Z,24.17
2023-02-09T09:06:02.412Z,29.60
2023-02-09T09:08:30.811Z,26.48
2023-02-09T09:10:58.366Z,30.25
2023-02-09T09:13:26.152Z,26.02
2023-02-09T09:15:57.268Z,27.77
2023-02-09T09:18:25.738Z,31.23
2023-02-09T09:20:53.414Z,26.88
2023-02-09T09:23:21.450Z,24.90
2023-02-09T09:25:48.842Z,27.88
2023-02-09T09:28:16.827Z,27.40
2023-02-09T09:30:44.361Z,25.05
2023-02-09T09:33:11.783Z,28.55
2023-02-09T09:35:38.866Z,27.25
2023-02-09T09:38:05.991Z,29.45
2023-02-09T09:40:36.244Z,32.38
2023-02-09T09:43:15.271Z,32.33
2023-02-09T09:45:42.925Z,29.65
2023-02-09T09:48:23.612Z,28.95
2023-02-09T09:51:02.528Z,30.50
2023-02-09T09:53:33.510Z,33.90
2023-02-09T09:56:07.818Z,35.75
2023-02-09T09:58:39.487Z,33.72
2023-02-09T10:01:10.503Z,30.42
2023-02-09T10:03:37.541Z,31.08
2023-02-09T10:06:17.113Z,37.45
2023-02-09T10:09:08.040Z,39.03
2023-02-09T10:12:12.231Z,31.33
2023-02-09T10:14:39.250Z,35.17
2023-02-09T10:17:06.825Z,34.70
2023-02-09T10:19:34.232Z,30.42
2023-02-09T10:22:01.136Z,34.17
2023-02-09T10:24:29.477Z,35.35
2023-02-09T10:27:02.460Z,32.50
2023-02-09T10:29:29.753Z,34.47
2023-02-09T10:32:15.246Z,34.35
2023-02-09T10:34:52.080Z,37.90
2023-02-09T10:37:24.836Z,41.42
2023-02-09T10:40:07.236Z,37.72
2023-02-09T10:42:37.032Z,32.85
2023-02-09T10:45:22.024Z,34.45
2023-02-09T10:48:14.141Z,36.60
2023-02-09T10:51:12.297Z,32.75
2023-02-09T10:53:56.587Z,31.85
2023-02-09T10:56:34.468Z,32.88
2023-02-09T10:59:14.238Z,38.80
2023-02-09T11:01:43.987Z,36.03
2023-02-09T11:04:24.733Z,36.50
2023-02-09T11:07:19.841Z,35.97
2023-02-09T11:09:49.581Z,36.78
2023-02-09T11:12:16.728Z,31.65
2023-02-09T11:14:43.853Z,41.40
2023-02-09T11:17:13.688Z,32.25
2023-02-09T11:19:55.616Z,38.17
2023-02-09T11:22:41.303Z,36.03
2023-02-09T11:25:34.282Z,36.90
2023-02-09T11:28:19.611Z,36.60
2023-02-09T11:30:55.675Z,35.28
2023-02-09T11:33:49.223Z,39.33
2023-02-09T11:36:25.254Z,36.90
2023-02-09T11:39:03.267Z,41.60
2023-02-09T11:41:52.075Z,39.70
2023-02-09T11:44:46.261Z,36.63
2023-02-09T11:47:20.967Z,41.25
2023-02-09T11:49:54.067Z,39.30
2023-02-09T11:52:42.157Z,36.75
2023-02-09T11:55:27.968Z,34.13
2023-02-09T11:58:03.542Z,37.28
2023-02-09T12:00:54.816Z,40.00
2023-02-09T12:03:24.849Z,39.05
2023-02-09T12:05:52.721Z,50.70
2023-02-09T12:08:27.649Z,37.03
2023-02-09T12:11:19.421Z,37.30
2023-02-09T12:14:23.657Z,34.17
2023-02-09T12:17:07.479Z,37.05
2023-02-09T12:19:43.543Z,36.22
2023-02-09T12:22:35.986Z,36.50
2023-02-09T12:25:20.946Z,37.28
2023-02-09T12:28:12.280Z,37.67
2023-02-09T12:30:45.450Z,37.72
2023-02-09T12:33:24.818Z,38.97
2023-02-09T12:36:10.271Z,34.50
2023-02-09T12:39:04.156Z,39.85
2023-02-09T12:41:34.291Z,41.58
2023-02-09T12:44:10.646Z,37.45
2023-02-09T12:46:53.672Z,33.05
2023-02-09T12:49:28.316Z,39.60
2023-02-09T12:52:01.175Z,36.83
2023-02-09T12:54:37.184Z,39.45
2023-02-09T12:57:16.822Z,33.95
2023-02-09T12:59:50.335Z,36.17
2023-02-09T13:02:50.233Z,32.80
2023-02-09T13:05:33.863Z,30.25
2023-02-09T13:08:16.424Z,36.10
2023-02-09T13:10:55.495Z,35.63
2023-02-09T13:13:41.188Z,33.90
2023-02-09T13:16:29.749Z,34.35
2023-02-09T13:19:24.855Z,32.70
2023-02-09T13:22:25.189Z,30.27
2023-02-09T13:25:09.152Z,34.20
2023-02-09T13:27:45.506Z,34.72
2023-02-09T13:30:32.736Z,36.53
2023-02-09T13:33:35.592Z,39.38
2023-02-09T13:36:16.272Z,39.03
2023-02-09T13:38:50.210Z,42.20
2023-02-09T13:41:35.425Z,33.65
2023-02-09T13:44:03.332Z,31.92
2023-02-09T13:46:35.549Z,33.55
2023-02-09T13:49:13.751Z,31.30
2023-02-09T13:51:40.885Z,37.50
2023-02-09T13:54:07.919Z,33.53
2023-02-09T13:56:39.573Z,32.53
2023-02-09T13:59:06.590Z,28.40
2023-02-09T14:01:37.051Z,30.95
2023-02-09T14:04:12.154Z,34.60
2023-02-09T14:06:50.835Z,35.88
2023-02-09T14:09:28.831Z,33.95
2023-02-09T14:12:02.480Z,29.83
2023-02-09T14:14:52.270Z,30.38
2023-02-09T14:17:32.120Z,32.55
2023-02-09T14:20:00.218Z,25.27
2023-02-09T14:22:38.250Z,34.67
2023-02-09T14:25:14.305Z,38.30
2023-02-09T14:27:45.699Z,34.28
2023-02-09T14:30:20.928Z,34.50
2023-02-09T14:32:55.959Z,27.92
2023-02-09T14:35:29.248Z,32.53
2023-02-09T14:37:59.094Z,29.33
2023-02-09T14:40:32.143Z,34.70
2023-02-09T14:43:06.640Z,37.95
2023-02-09T14:45:48.971Z,38.77
2023-02-09T14:48:24.855Z,31.35
2023-02-09T14:50:58.049Z,37.25
2023-02-09T14:53:29.147Z,32.00
2023-02-09T14:55:57.842Z,37.63
2023-02-09T14:58:29.310Z,37.60
2023-02-09T15:01:02.451Z,49.17
2023-02-09T15:03:29.826Z,36.08
2023-02-09T15:06:00.261Z,41.53
2023-02-09T15:08:31.245Z,35.22
2023-02-09T15:11:24.318Z,41.45
2023-02-09T15:13:58.945Z,38.13
2023-02-09T15:16:26.416Z,36.37
2023-02-09T15:18:53.652Z,38.20
2023-02-09T15:21:21.199Z,35.00
2023-02-09T15:23:49.260Z,34.35
2023-02-09T15:26:27.072Z,40.20
2023-02-09T15:28:54.248Z,37.90
2023-02-09T15:31:22.253Z,35.67
2023-02-09T15:33:49.661Z,40.38
2023-02-09T15:36:19.744Z,40.03
2023-02-09T15:38:47.715Z,39.35
2023-02-09T15:41:35.826Z,45.15
2023-02-09T15:44:37.664Z,44.13
2023-02-09T15:47:24.039Z,40.40
2023-02-09T15:49:51.352Z,35.25
2023-02-09T15:52:18.847Z,52.38
2023-02-09T15:54:46.268Z,44.88
2023-02-09T15:57:14.673Z,39.15
2023-02-09T15:59:42.712Z,42.22
2023-02-09T16:02:14.115Z,39.45
2023-02-09T16:04:41.519Z,45.05
2023-02-09T16:07:19.624Z,44.00
2023-02-09T16:09:46.898Z,47.55
2023-02-09T16:12:14.418Z,41.60
2023-02-09T16:14:41.453Z,42.83
2023-02-09T16:17:08.970Z,45.80
2023-02-09T16:19:35.995Z,39.63
2023-02-09T16:22:07.055Z,45.95
2023-02-09T16:24:52.499Z,39.97
2023-02-09T16:27:31.135Z,38.83
2023-02-09T16:29:58.930Z,50.55
2023-02-09T16:32:28.636Z,51.00
2023-02-09T16:35:04.465Z,46.03
2023-02-09T16:37:40.178Z,44.72
2023-02-09T16:40:28.040Z,39.67
2023-02-09T16:42:57.208Z,47.75
2023-02-09T16:45:25.324Z,47.83
2023-02-09T16:47:55.154Z,49.35
2023-02-09T16:50:33.327Z,52.42
2023-02-09T16:53:05.257Z,47.28
2023-02-09T16:55:35.304Z,44.97
2023-02-09T16:58:07.045Z,48.47
2023-02-09T17:00:37.818Z,51.05
2023-02-09T17:03:20.232Z,46.35
2023-02-09T17:05:54.115Z,51.30
2023-02-09T17:08:24.448Z,46.30
2023-02-09T17:10:54.231Z,45.25
2023-02-09T17:13:22.020Z,52.00
2023-02-09T17:15:55.606Z,49.22
2023-02-09T17:18:40.620Z,52.28
2023-02-09T17:21:12.807Z,54.00
2023-02-09T17:23:40.054Z,50.58
2023-02-09T17:26:07.330Z,60.63
2023-02-09T17:28:34.381Z,54.00
2023-02-09T17:31:03.140Z,51.00
2023-02-09T17:33:35.560Z,49.45
2023-02-09T17:38:53.856Z,51.55
2023-02-09T17:41:40.806Z,57.35
2023-02-09T17:44:24.281Z,56.85
2023-02-09T17:46:58.160Z,49.63
2023-02-09T17:49:25.158Z,52.25
2023-02-09T17:51:53.053Z,56.15
2023-02-09T17:54:21.051Z,56.88
2023-02-09T17:56:48.511Z,54.65
2023-02-09T17:59:19.918Z,58.65
2023-02-09T18:01:50.504Z,53.35
2023-02-09T18:04:23.603Z,59.38
2023-02-09T18:06:51.122Z,53.15
2023-02-09T18:09:18.194Z,62.25
2023-02-09T18:11:45.105Z,60.95
2023-02-09T18:14:16.895Z,60.83
2023-02-09T18:16:44.691Z,62.13
2023-02-09T18:19:12.624Z,67.50
2023-02-09T18:21:46.624Z,61.55
2023-02-09T18:24:14.091Z,62.45
2023-02-09T18:26:41.090Z,65.30
2023-02-09T18:29:08.707Z,66.65
2023-02-09T18:31:36.798Z,75.85
2023-02-09T18:34:05.045Z,63.33
2023-02-09T18:36:33.796Z,68.75
2023-02-09T18:39:00.834Z,79.95
2023-02-09T18:41:28.037Z,73.75
2023-02-09T18:43:56.225Z,67.90
2023-02-09T18:46:27.181Z,69.72
2023-02-09T18:48:54.908Z,73.68
2023-02-09T18:51:22.031Z,72.43
2023-02-09T18:53:51.508Z,72.22
2023-02-09T18:56:20.755Z,73.05
2023-02-09T18:58:51.776Z,62.83
2023-02-09T19:01:23.276Z,68.03
2023-02-09T19:03:54.210Z,76.65
2023-02-09T19:06:22.410Z,74.97
2023-02-09T19:08:50.442Z,70.57
2023-02-09T19:11:20.298Z,73.80
2023-02-09T19:14:08.114Z,70.40
2023-02-09T19:16:36.746Z,77.03
2023-02-09T19:19:04.340Z,68.30
2023-02-09T19:21:32.667Z,74.53
2023-02-09T19:23:59.645Z,63.58
2023-02-09T19:26:26.790Z,76.32
2023-02-09T19:28:56.820Z,69.80
2023-02-09T19:31:24.786Z,71.32
2023-02-09T19:33:57.946Z,73.40
2023-02-09T19:36:27.815Z,69.57
2023-02-09T19:38:56.285Z,64.47
2023-02-09T19:41:25.619Z,70.38
2023-02-09T19:43:57.793Z,66.68
2023-02-09T19:46:26.407Z,70.25
2023-02-09T19:48:53.991Z,68.88
2023-02-09T19:51:21.898Z,63.63
2023-02-09T19:53:49.092Z,65.90
2023-02-09T19:56:19.449Z,66.30
2023-02-09T19:58:47.768Z,65.50
2023-02-09T20:01:14.767Z,58.83
2023-02-09T20:03:42.628Z,64.50
2023-02-09T20:06:11.973Z,68.18
2023-02-09T20:08:39.567Z,62.35
2023-02-09T20:11:08.497Z,63.38
2023-02-09T20:13:36.258Z,63.63
2023-02-09T20:16:13.598Z,63.63
2023-02-09T20:18:41.396Z,69.55
2023-02-09T20:21:10.896Z,61.13
2023-02-09T20:23:38.404Z,69.15
2023-02-09T20:26:26.903Z,58.92
2023-02-09T20:28:55.543Z,66.50
2023-02-09T20:31:25.683Z,62.67
2023-02-09T20:33:53.165Z,62.85
2023-02-09T20:36:23.235Z,72.80
2023-02-09T20:38:51.588Z,69.47
2023-02-09T20:41:18.844Z,75.75
2023-02-09T20:44:04.379Z,82.65
2023-02-09T20:46:51.623Z,75.03
2023-02-09T20:49:19.460Z,66.30
2023-02-09T20:51:47.068Z,68.38
2023-02-09T20:54:15.201Z,71.53
2023-02-09T20:56:43.130Z,73.93
2023-02-09T20:59:11.840Z,72.10
2023-02-09T21:01:39.759Z,75.70
2023-02-09T21:04:07.839Z,66.40
2023-02-09T21:06:37.146Z,71.00
2023-02-09T21:09:06.208Z,69.63
2023-02-09T21:11:33.769Z,66.43
2023-02-09T21:14:03.755Z,64.50
2023-02-09T21:16:31.897Z,73.00
2023-02-09T21:18:59.946Z,71.55
2023-02-09T21:21:30.313Z,67.43
2023-02-09T21:23:57.367Z,63.47
2023-02-09T21:26:24.689Z,70.20
2023-02-09T21:28:56.200Z,69.45
2023-02-09T21:31:26.150Z,70.97
2023-02-09T21:33:53.292Z,76.63
2023-02-09T21:36:20.260Z,65.63
2023-02-09T21:38:47.676Z,80.45
2023-02-09T21:41:37.556Z,73.82
2023-02-09T21:44:05.687Z,63.58
2023-02-09T21:46:35.069Z,76.88
2023-02-09T21:49:02.523Z,70.30
2023-02-09T21:51:29.528Z,68.40
2023-02-09T21:53:56.668Z,73.22
2023-02-09T21:56:23.664Z,70.35
2023-02-09T21:58:50.944Z,75.43
2023-02-09T22:01:18.315Z,69.10
2023-02-09T22:03:49.780Z,70.78
2023-02-09T22:06:16.802Z,69.95
2023-02-09T22:08:43.761Z,74.35
2023-02-09T22:11:10.936Z,69.22
2023-02-09T22:13:37.962Z,63.72
2023-02-09T22:16:09.714Z,67.18
2023-02-09T22:18:37.575Z,68.32
2023-02-09T22:21:08.079Z,83.03
2023-02-09T22:23:35.332Z,72.40
2023-02-09T22:26:04.548Z,87.18
2023-02-09T22:28:35.045Z,68.40
2023-02-09T22:31:16.234Z,74.72
2023-02-09T22:33:43.478Z,72.82
2023-02-09T22:36:16.520Z,82.22
2023-02-09T22:38:47.438Z,83.93
2023-02-09T22:41:23.148Z,74.70
2023-02-09T22:43:52.805Z,66.30
2023-02-09T22:46:22.185Z,82.70
2023-02-09T22:49:00.282Z,146.45
2023-02-09T22:51:30.264Z,180.65
2023-02-09T22:53:58.731Z,197.20
2023-02-09T22:56:27.212Z,141.05
2023-02-09T22:58:58.162Z,232.98
2023-02-09T23:01:25.354Z,184.40
2023-02-09T23:03:52.652Z,219.45
2023-02-09T23:06:23.503Z,184.75
2023-02-09T23:08:55.534Z,141.80
2023-02-09T23:11:23.371Z,183.02
2023-02-09T23:13:55.093Z,101.35
2023-02-09T23:16:34.551Z,154.38
2023-02-09T23:19:05.084Z,149.82
2023-02-09T23:21:35.013Z,213.80
2023-02-09T23:24:02.586Z,234.90
2023-02-09T23:26:30.067Z,155.30
2023-02-09T23:29:00.053Z,218.40
2023-02-09T23:31:27.511Z,190.90
2023-02-09T23:33:55.133Z,131.15
2023-02-09T23:36:24.961Z,154.35
2023-02-09T23:38:57.991Z,133.25
2023-02-09T23:41:25.629Z,135.50
2023-02-09T23:43:53.616Z,98.07
2023-02-09T23:46:23.996Z,146.40
2023-02-09T23:48:54.992Z,138.13
2023-02-09T23:51:26.824Z,137.43
2023-02-09T23:53:55.100Z,130.65
2023-02-09T23:56:22.755Z,125.82
2023-02-09T23:58:51.397Z,96.65
